Time;durP1;ratioP1;P1;durP2;ratioP2;P2;SDS_P1;SDS_P2;PMS_P1;PMS_P2;Temp;Humidity;BMP_temperature;BMP_pressure;BME280_temperature;BME280_humidity;BME280_pressure;Samples;Min_cycle;Max_cycle;Signal;HPM_P1;HPM_P2
2023/11/21 00:00:56;;;;;;;121.97;43.83;;;;;;;10.03;100.00;101088.22;5265199;28;20026;-74
2023/11/21 00:03:28;;;;;;;137.73;48.78;;;;;;;10.02;100.00;101093.72;5268386;28;20381;-75
2023/11/21 00:05:58;;;;;;;141.82;46.03;;;;;;;10.02;100.00;101096.41;5268774;28;20024;-74
2023/11/21 00:08:29;;;;;;;146.75;48.53;;;;;;;10.00;100.00;101101.94;5268678;28;20024;-75
2023/11/21 00:11:00;;;;;;;133.50;47.35;;;;;;;10.02;100.00;101096.41;5267140;28;20016;-74
2023/11/21 00:13:31;;;;;;;159.63;53.75;;;;;;;10.02;100.00;101107.13;5268701;28;20089;-74
2023/11/21 00:16:02;;;;;;;141.48;47.72;;;;;;;10.05;100.00;101098.78;5268484;28;20020;-75
2023/11/21 00:18:34;;;;;;;164.02;55.28;;;;;;;10.03;100.00;101098.09;5269404;28;20020;-75
2023/11/21 00:21:06;;;;;;;145.30;48.38;;;;;;;10.01;100.00;101095.56;5267725;28;20028;-74
2023/11/21 00:23:36;;;;;;;139.95;46.35;;;;;;;10.01;100.00;101094.75;5268644;28;20058;-75
2023/11/21 00:26:07;;;;;;;137.82;50.83;;;;;;;9.96;100.00;101099.72;5262382;28;20054;-74
2023/11/21 00:28:37;;;;;;;148.35;48.88;;;;;;;9.96;100.00;101102.41;5271055;28;20019;-75
2023/11/21 00:31:08;;;;;;;130.98;47.55;;;;;;;9.97;100.00;101102.25;5267810;28;20720;-75
2023/11/21 00:33:38;;;;;;;186.02;53.78;;;;;;;9.96;100.00;101103.25;5268902;28;20048;-75
2023/11/21 00:36:09;;;;;;;148.13;51.35;;;;;;;9.96;100.00;101107.78;5266687;28;20385;-74
2023/11/21 00:38:40;;;;;;;149.98;53.80;;;;;;;9.97;100.00;101106.75;5272001;28;20024;-75
2023/11/21 00:41:10;;;;;;;141.43;49.33;;;;;;;10.02;100.00;101107.97;5266979;28;20020;-75
2023/11/21 00:43:40;;;;;;;158.95;51.22;;;;;;;10.02;100.00;101113.34;5270684;28;20020;-75
2023/11/21 00:46:11;;;;;;;155.30;52.00;;;;;;;10.02;100.00;101112.50;5266093;28;20028;-74
2023/11/21 00:48:41;;;;;;;170.43;53.88;;;;;;;10.01;100.00;101119.69;5266575;28;20096;-75
2023/11/21 00:51:12;;;;;;;146.52;50.17;;;;;;;9.98;100.00;101114.63;5267240;28;20107;-75
2023/11/21 00:53:42;;;;;;;172.65;52.83;;;;;;;10.01;100.00;101121.53;5270499;28;20015;-75
2023/11/21 00:56:14;;;;;;;162.18;50.28;;;;;;;9.97;100.00;101112.97;5269764;28;20560;-75
2023/11/21 00:58:49;;;;;;;177.32;54.15;;;;;;;10.00;100.00;101109.97;5266104;28;20035;-75
2023/11/21 01:01:22;;;;;;;153.88;51.28;;;;;;;9.98;100.00;101111.97;5267293;28;20036;-74
2023/11/21 01:03:54;;;;;;;364.38;63.58;;;;;;;9.96;100.00;101118.50;5269276;28;20099;-75
2023/11/21 01:06:24;;;;;;;323.65;63.75;;;;;;;10.01;100.00;101117.03;5270391;28;20024;-75
2023/11/21 01:08:55;;;;;;;293.35;59.58;;;;;;;9.99;100.00;101116.34;5261503;28;20026;-74
2023/11/21 01:11:26;;;;;;;162.48;52.30;;;;;;;9.99;100.00;101116.34;5264184;28;20052;-74
2023/11/21 01:13:56;;;;;;;178.43;52.67;;;;;;;9.98;100.00;101120.00;5266844;28;20024;-75
2023/11/21 01:16:27;;;;;;;212.95;55.30;;;;;;;10.01;100.00;101122.38;5268474;28;20676;-75
2023/11/21 01:18:59;;;;;;;188.50;51.95;;;;;;;10.01;100.00;101125.06;5264764;28;20538;-75
2023/11/21 01:21:30;;;;;;;177.85;53.63;;;;;;;9.97;100.00;101126.38;5271272;28;20027;-75
2023/11/21 01:24:00;;;;;;;245.38;57.35;;;;;;;9.97;100.00;101129.03;5265235;28;20067;-75
2023/11/21 01:26:31;;;;;;;161.85;51.97;;;;;;;9.99;100.00;101129.75;5266395;28;20044;-74
2023/11/21 01:29:01;;;;;;;186.38;53.35;;;;;;;9.98;100.00;101133.41;5265698;28;20028;-74
2023/11/21 01:31:32;;;;;;;169.57;52.15;;;;;;;9.97;100.00;101138.94;5267128;28;20442;-75
2023/11/21 01:34:03;;;;;;;181.65;51.53;;;;;;;9.94;100.00;101142.78;5265061;28;20068;-75
2023/11/21 01:36:33;;;;;;;212.38;56.15;;;;;;;9.90;100.00;101144.06;5265651;28;20016;-75
2023/11/21 01:39:08;;;;;;;186.50;54.15;;;;;;;9.86;100.00;101145.38;5265863;28;20434;-75
2023/11/21 01:41:38;;;;;;;172.85;51.88;;;;;;;9.79;100.00;101144.31;5267582;28;20026;-75
2023/11/21 01:44:09;;;;;;;193.98;53.83;;;;;;;9.74;100.00;101147.44;5266299;28;20024;-74
2023/11/21 01:46:41;;;;;;;356.08;57.42;;;;;;;9.65;100.00;101148.38;5263952;28;20020;-74
2023/11/21 01:49:13;;;;;;;205.60;46.83;;;;;;;9.58;100.00;101150.78;5263945;28;20024;-74
2023/11/21 01:51:49;;;;;;;150.15;44.92;;;;;;;9.51;100.00;101152.41;5266071;28;20012;-74
2023/11/21 01:54:20;;;;;;;122.72;43.70;;;;;;;9.45;100.00;101160.22;5264562;28;20036;-75
2023/11/21 01:56:51;;;;;;;160.93;48.13;;;;;;;9.49;100.00;101161.59;5264958;28;20012;-74
2023/11/21 01:59:22;;;;;;;166.57;49.22;;;;;;;9.44;100.00;101162.06;5265872;28;20031;-75
2023/11/21 02:01:53;;;;;;;171.38;48.55;;;;;;;9.39;100.00;101171.50;5265918;28;20016;-74
2023/11/21 02:04:24;;;;;;;296.85;52.60;;;;;;;9.38;100.00;101165.31;5262045;28;20057;-75
2023/11/21 02:06:54;;;;;;;274.92;54.25;;;;;;;9.32;100.00;101163.25;5264787;28;20104;-74
2023/11/21 02:09:27;;;;;;;299.50;53.78;;;;;;;9.31;100.00;101169.59;5265630;28;20020;-74
2023/11/21 02:11:58;;;;;;;210.60;49.67;;;;;;;9.29;100.00;101179.63;5263836;28;20024;-74
2023/11/21 02:14:30;;;;;;;256.77;50.60;;;;;;;9.31;100.00;101172.28;5264829;28;20115;-74
2023/11/21 02:17:01;;;;;;;510.50;53.75;;;;;;;9.32;100.00;101172.13;5265616;28;20110;-74
2023/11/21 02:19:32;;;;;;;286.42;48.83;;;;;;;9.32;100.00;101169.44;5260102;28;20024;-74
2023/11/21 02:22:06;;;;;;;184.10;43.08;;;;;;;9.31;100.00;101178.47;5258650;28;20035;-75
2023/11/21 02:24:36;;;;;;;274.85;42.70;;;;;;;9.28;100.00;101178.75;5256376;28;20054;-74
2023/11/21 02:27:07;;;;;;;350.42;47.67;;;;;;;9.24;100.00;101180.06;5263395;28;20107;-75
2023/11/21 02:29:38;;;;;;;104.82;38.22;;;;;;;9.23;100.00;101186.41;5261659;28;20039;-75
2023/11/21 02:32:10;;;;;;;149.48;40.08;;;;;;;9.27;100.00;101189.63;5263667;28;20114;-75
2023/11/21 02:34:41;;;;;;;159.18;41.20;;;;;;;9.27;100.00;101179.75;5264511;28;20130;-74
2023/11/21 02:37:11;;;;;;;166.20;42.33;;;;;;;9.28;100.00;101177.91;5263444;28;20028;-74
2023/11/21 02:39:41;;;;;;;257.42;42.42;;;;;;;9.26;100.00;101180.75;5263076;28;20020;-75
2023/11/21 02:42:12;;;;;;;223.80;41.15;;;;;;;9.26;100.00;101174.56;5258450;28;20473;-74
2023/11/21 02:44:42;;;;;;;179.18;39.78;;;;;;;9.26;100.00;101182.59;5265779;28;20434;-74
2023/11/21 02:47:13;;;;;;;133.43;39.95;;;;;;;9.22;100.00;101176.69;5264080;28;20040;-74
2023/11/21 02:49:44;;;;;;;125.18;41.42;;;;;;;9.26;100.00;101179.91;5262125;28;20797;-74
2023/11/21 02:52:14;;;;;;;133.05;40.75;;;;;;;9.30;100.00;101186.66;5263576;28;20022;-74
2023/11/21 02:54:45;;;;;;;111.03;39.30;;;;;;;9.37;100.00;101187.72;5262019;28;20032;-74
2023/11/21 02:57:16;;;;;;;139.02;45.60;;;;;;;9.42;100.00;101185.44;5262047;28;20101;-74
2023/11/21 02:59:47;;;;;;;147.82;44.00;;;;;;;9.46;100.00;101186.00;5259072;28;20099;-74
2023/11/21 03:02:18;;;;;;;131.98;41.88;;;;;;;9.51;100.00;101176.50;5262720;28;20103;-74
2023/11/21 03:04:49;;;;;;;135.38;42.63;;;;;;;9.53;100.00;101179.03;5263009;28;20504;-74
2023/11/21 03:07:20;;;;;;;136.80;40.78;;;;;;;9.55;100.00;101187.78;5259236;28;20020;-74
2023/11/21 03:09:50;;;;;;;134.35;41.63;;;;;;;9.58;100.00;101184.78;5262279;28;20028;-74
2023/11/21 03:12:21;;;;;;;125.45;41.30;;;;;;;9.59;100.00;101183.81;5262697;28;20053;-74
2023/11/21 03:14:52;;;;;;;137.05;40.50;;;;;;;9.59;100.00;101192.69;5262712;28;20590;-74
2023/11/21 03:17:22;;;;;;;129.50;41.72;;;;;;;9.60;100.00;101193.53;5262546;28;20489;-74
2023/11/21 03:19:53;;;;;;;140.95;40.15;;;;;;;9.63;100.00;101198.56;5262234;28;20047;-74
2023/11/21 03:22:23;;;;;;;134.63;43.85;;;;;;;9.64;100.00;101192.22;5263760;28;20020;-74
2023/11/21 03:24:54;;;;;;;125.38;38.58;;;;;;;9.67;100.00;101189.22;5262967;28;20024;-74
2023/11/21 03:27:24;;;;;;;140.38;40.25;;;;;;;9.69;100.00;101183.72;5267733;28;20359;-74
2023/11/21 03:29:55;;;;;;;136.60;39.55;;;;;;;9.68;100.00;101195.44;5259388;28;20016;-74
2023/11/21 03:32:26;;;;;;;137.48;41.03;;;;;;;9.67;100.00;101191.06;5266076;28;20462;-74
2023/11/21 03:34:58;;;;;;;134.32;39.50;;;;;;;9.67;100.00;101193.75;5266745;28;20036;-74
2023/11/21 03:37:28;;;;;;;140.07;40.20;;;;;;;9.69;100.00;101200.66;5260231;28;20047;-74
2023/11/21 03:39:59;;;;;;;132.68;39.97;;;;;;;9.73;100.00;101204.69;5266546;28;20514;-74
2023/11/21 03:42:29;;;;;;;111.82;35.05;;;;;;;9.80;100.00;101218.34;5266034;28;20027;-74
2023/11/21 03:45:00;;;;;;;136.38;40.42;;;;;;;9.82;100.00;101213.66;5266475;28;20031;-74
2023/11/21 03:47:30;;;;;;;142.88;39.72;;;;;;;9.83;100.00;101208.13;5266086;28;20346;-74
2023/11/21 03:50:01;;;;;;;130.75;39.20;;;;;;;9.85;100.00;101206.16;5260714;28;20012;-73
2023/11/21 03:52:31;;;;;;;154.75;39.63;;;;;;;9.84;100.00;101206.34;5267059;28;20067;-74
2023/11/21 03:55:02;;;;;;;107.50;35.88;;;;;;;9.88;100.00;101210.38;5266447;28;20461;-74
2023/11/21 03:57:33;;;;;;;132.13;39.10;;;;;;;9.91;100.00;101217.28;5266787;28;20107;-74
2023/11/21 04:00:08;;;;;;;130.40;39.95;;;;;;;9.91;100.00;101215.44;5266171;28;20039;-74
2023/11/21 04:02:39;;;;;;;135.13;38.05;;;;;;;9.94;100.00;101216.94;5264107;28;21232;-74
2023/11/21 04:05:09;;;;;;;164.25;43.00;;;;;;;9.95;100.00;101219.50;5267870;28;20374;-74
2023/11/21 04:07:40;;;;;;;138.10;38.17;;;;;;;9.98;100.00;101219.16;5265686;28;20021;-74
2023/11/21 04:10:12;;;;;;;142.85;38.20;;;;;;;10.00;100.00;101221.72;5265261;28;20506;-74
2023/11/21 04:12:43;;;;;;;139.10;37.50;;;;;;;10.02;100.00;101233.13;5258653;28;20028;-74
2023/11/21 04:15:14;;;;;;;140.60;38.90;;;;;;;10.03;100.00;101230.28;5266733;28;20020;-74
2023/11/21 04:17:45;;;;;;;132.90;38.28;;;;;;;10.03;100.00;101237.47;5265788;28;20058;-75
2023/11/21 04:20:15;;;;;;;127.13;36.28;;;;;;;10.00;100.00;101240.47;5259710;28;20478;-74
2023/11/21 04:22:46;;;;;;;117.50;34.78;;;;;;;9.98;100.00;101245.97;5265548;28;20027;-74
2023/11/21 04:25:16;;;;;;;116.50;34.97;;;;;;;9.98;100.00;101251.34;5265659;28;20508;-74
2023/11/21 04:27:47;;;;;;;126.82;36.65;;;;;;;9.98;100.00;101254.00;5265605;28;20098;-74
2023/11/21 04:30:18;;;;;;;123.35;37.55;;;;;;;10.02;100.00;101258.06;5265595;28;20019;-73
2023/11/21 04:32:48;;;;;;;130.20;36.67;;;;;;;10.08;100.00;101261.97;5265223;28;20102;-75
2023/11/21 04:35:19;;;;;;;122.70;35.70;;;;;;;10.11;100.00;101259.84;5265597;28;20020;-75
2023/11/21 04:37:50;;;;;;;138.55;38.38;;;;;;;10.13;100.00;101254.31;5264374;28;20493;-75
2023/11/21 04:40:21;;;;;;;123.82;38.10;;;;;;;10.15;100.00;101257.72;5262272;28;20028;-73
2023/11/21 04:42:51;;;;;;;134.25;37.03;;;;;;;10.17;100.00;101255.72;5265848;28;20035;-74
2023/11/21 04:45:22;;;;;;;123.38;35.83;;;;;;;10.20;100.00;101265.31;5265949;28;20028;-74
2023/11/21 04:47:52;;;;;;;140.20;40.47;;;;;;;10.20;100.00;101263.47;5266458;28;20096;-74
2023/11/21 04:50:23;;;;;;;111.03;33.97;;;;;;;10.26;100.00;101270.91;5259126;28;20024;-75
2023/11/21 04:52:54;;;;;;;152.00;42.10;;;;;;;10.30;100.00;101274.13;5265415;28;20020;-75
2023/11/21 04:55:26;;;;;;;126.95;38.38;;;;;;;10.33;100.00;101279.19;5265455;28;20020;-74
2023/11/21 04:57:56;;;;;;;131.45;38.38;;;;;;;10.35;100.00;101285.25;5258880;28;20030;-75
2023/11/21 05:00:27;;;;;;;135.25;39.35;;;;;;;10.38;100.00;101284.91;5265174;28;20470;-74
2023/11/21 05:02:57;;;;;;;125.88;38.28;;;;;;;10.37;100.00;101281.41;5263840;28;20024;-74
2023/11/21 05:05:29;;;;;;;124.97;36.67;;;;;;;10.38;100.00;101284.91;5264405;28;20051;-75
2023/11/21 05:08:01;;;;;;;124.93;37.97;;;;;;;10.41;100.00;101289.16;5265241;28;20062;-75
2023/11/21 05:10:31;;;;;;;122.18;37.58;;;;;;;10.42;100.00;101288.16;5263322;28;20027;-74
2023/11/21 05:13:02;;;;;;;134.63;38.17;;;;;;;10.44;100.00;101288.81;5265398;28;20489;-75
2023/11/21 05:15:33;;;;;;;130.13;37.05;;;;;;;10.45;100.00;101299.41;5256963;28;20038;-75
2023/11/21 05:18:03;;;;;;;115.32;34.03;;;;;;;10.47;100.00;101297.41;5261592;28;20024;-75
2023/11/21 05:20:34;;;;;;;110.35;33.00;;;;;;;10.55;100.00;101302.00;5263708;28;20024;-75
2023/11/21 05:23:04;;;;;;;133.20;35.17;;;;;;;10.53;100.00;101299.47;5265198;28;20028;-75
2023/11/21 05:25:35;;;;;;;119.95;34.88;;;;;;;10.52;100.00;101305.84;5261383;28;20032;-75
2023/11/21 05:28:06;;;;;;;127.05;37.17;;;;;;;10.53;100.00;101304.00;5256671;28;20038;-75
2023/11/21 05:30:38;;;;;;;124.00;35.22;;;;;;;10.52;100.00;101313.03;5256097;28;20035;-74
2023/11/21 05:33:09;;;;;;;121.47;35.22;;;;;;;10.52;100.00;101318.41;5263304;28;20028;-75
2023/11/21 05:35:40;;;;;;;118.55;35.33;;;;;;;10.53;100.00;101317.41;5264490;28;20020;-75
2023/11/21 05:38:10;;;;;;;122.82;37.75;;;;;;;10.51;100.00;101320.25;5263346;28;20031;-75
2023/11/21 05:40:41;;;;;;;123.70;35.97;;;;;;;10.53;100.00;101336.19;5263171;28;20454;-75
2023/11/21 05:43:11;;;;;;;151.13;39.53;;;;;;;10.51;100.00;101333.66;5264338;28;20028;-75
2023/11/21 05:45:42;;;;;;;128.95;40.85;;;;;;;10.52;100.00;101335.34;5264471;28;20024;-75
2023/11/21 05:48:12;;;;;;;178.10;57.67;;;;;;;10.53;100.00;101337.03;5261156;28;20035;-75
2023/11/21 05:50:43;;;;;;;154.25;43.17;;;;;;;10.52;100.00;101339.88;5243567;28;20020;-74
2023/11/21 05:53:15;;;;;;;140.70;40.25;;;;;;;10.53;100.00;101342.38;5270112;28;20035;-75
2023/11/21 05:55:46;;;;;;;116.20;37.30;;;;;;;10.53;100.00;101353.13;5266071;28;20035;-75
2023/11/21 05:58:16;;;;;;;113.90;36.33;;;;;;;10.54;100.00;101352.16;5266400;28;20054;-75
2023/11/21 06:00:47;;;;;;;132.13;37.97;;;;;;;10.58;100.00;101358.88;5273647;28;20496;-76
2023/11/21 06:03:17;;;;;;;106.93;34.00;;;;;;;10.61;100.00;101355.88;5269009;28;20050;-75
2023/11/21 06:05:48;;;;;;;128.52;37.80;;;;;;;10.63;100.00;101359.25;5263940;28;20028;-74
2023/11/21 06:08:18;;;;;;;125.75;38.17;;;;;;;10.62;100.00;101372.81;5268174;28;20024;-75
2023/11/21 06:10:49;;;;;;;131.85;39.65;;;;;;;10.66;100.00;101370.69;5270211;28;20122;-75
2023/11/21 06:13:24;;;;;;;112.13;38.55;;;;;;;10.70;100.00;101374.75;5269148;28;20028;-75
2023/11/21 06:15:55;;;;;;;121.05;39.15;;;;;;;10.68;100.00;101371.38;5271100;28;20182;-75
2023/11/21 06:18:25;;;;;;;121.43;38.90;;;;;;;10.68;100.00;101374.06;5268892;28;20124;-75
2023/11/21 06:20:56;;;;;;;125.47;36.08;;;;;;;10.70;100.00;101372.91;5267342;28;20359;-75
2023/11/21 06:23:26;;;;;;;123.43;36.53;;;;;;;10.67;100.00;101375.88;5269139;28;20024;-74
2023/11/21 06:25:57;;;;;;;121.78;36.97;;;;;;;10.64;100.00;101376.19;5266319;28;20448;-75
2023/11/21 06:28:27;;;;;;;108.18;35.63;;;;;;;10.66;100.00;101386.78;5265586;28;20035;-75
2023/11/21 06:30:58;;;;;;;139.43;37.10;;;;;;;10.60;100.00;101378.34;5268997;28;20019;-74
2023/11/21 06:33:29;;;;;;;126.85;38.00;;;;;;;10.61;100.00;101380.03;5264294;28;20118;-75
2023/11/21 06:36:02;;;;;;;119.82;34.53;;;;;;;10.62;100.00;101387.09;5271983;28;20034;-74
2023/11/21 06:38:33;;;;;;;112.93;37.72;;;;;;;10.61;100.00;101398.81;5271485;28;20051;-75
2023/11/21 06:41:04;;;;;;;141.68;38.10;;;;;;;10.60;100.00;101397.13;5267939;28;20479;-75
2023/11/21 06:43:34;;;;;;;141.88;38.38;;;;;;;10.58;100.00;101388.38;5264601;28;20048;-75
2023/11/21 06:46:08;;;;;;;118.82;38.47;;;;;;;10.57;100.00;101394.75;5269710;28;20024;-75
2023/11/21 06:48:38;;;;;;;136.75;39.53;;;;;;;10.54;100.00;101391.53;5267670;28;20055;-74
2023/11/21 06:51:09;;;;;;;126.13;39.20;;;;;;;10.53;100.00;101397.88;5269169;28;20594;-75
2023/11/21 06:53:40;;;;;;;125.65;37.92;;;;;;;10.52;100.00;101404.25;5266345;28;20051;-74
2023/11/21 06:56:17;;;;;;;119.22;36.92;;;;;;;10.48;100.00;101402.88;5256229;28;20028;-75
2023/11/21 06:58:48;;;;;;;154.00;40.17;;;;;;;10.48;100.00;101405.53;5264267;28;20024;-75
2023/11/21 07:01:20;;;;;;;122.13;34.67;;;;;;;10.45;100.00;101405.88;5263558;28;20027;-75
2023/11/21 07:03:50;;;;;;;120.05;36.67;;;;;;;10.43;100.00;101410.53;5273990;28;20132;-74
2023/11/21 07:06:21;;;;;;;125.70;35.30;;;;;;;10.41;100.00;101413.38;5272198;28;20046;-74
2023/11/21 07:08:52;;;;;;;143.13;40.13;;;;;;;10.39;100.00;101420.69;5271440;28;20473;-75
2023/11/21 07:11:23;;;;;;;124.03;37.97;;;;;;;10.40;100.00;101430.47;5270091;28;20024;-75
2023/11/21 07:13:53;;;;;;;117.78;37.17;;;;;;;10.42;100.00;101439.19;5272528;28;20016;-75
2023/11/21 07:16:25;;;;;;;123.20;38.03;;;;;;;10.47;100.00;101442.25;5264015;28;20442;-75
2023/11/21 07:18:55;;;;;;;126.57;38.13;;;;;;;10.50;100.00;101452.69;5265145;28;20031;-74
2023/11/21 07:21:25;;;;;;;135.57;39.38;;;;;;;10.54;100.00;101459.47;5263596;28;20517;-75
2023/11/21 07:23:56;;;;;;;111.75;35.88;;;;;;;10.60;100.00;101466.06;5270809;28;20377;-75
2023/11/21 07:26:27;;;;;;;128.10;37.80;;;;;;;10.67;100.00;101477.03;5265597;28;20028;-75
2023/11/21 07:28:58;;;;;;;122.72;38.30;;;;;;;10.73;100.00;101477.25;5270929;28;20027;-73
2023/11/21 07:31:29;;;;;;;131.32;37.92;;;;;;;10.73;100.00;101481.78;5252205;28;20027;-75
2023/11/21 07:34:00;;;;;;;132.02;39.78;;;;;;;10.73;100.00;101476.41;5265551;28;20023;-75
2023/11/21 07:36:31;;;;;;;118.00;37.85;;;;;;;10.78;100.00;101480.31;5270140;28;20073;-74
2023/11/21 07:39:02;;;;;;;120.57;38.10;;;;;;;10.81;100.00;101479.19;5264141;28;20031;-74
2023/11/21 07:41:33;;;;;;;112.95;38.03;;;;;;;10.83;100.00;101477.19;5270016;28;20039;-75
2023/11/21 07:44:03;;;;;;;131.95;40.53;;;;;;;10.84;100.00;101493.16;5266130;28;20465;-74
2023/11/21 07:46:34;;;;;;;127.10;40.20;;;;;;;10.85;100.00;101486.78;5270955;28;20031;-75
2023/11/21 07:49:04;;;;;;;120.88;38.97;;;;;;;10.88;100.00;101486.47;5273609;27;20040;-75
2023/11/21 07:51:35;;;;;;;129.75;40.42;;;;;;;10.92;100.00;101492.38;5260754;28;20446;-76
2023/11/21 07:54:05;;;;;;;123.22;40.95;;;;;;;10.97;100.00;101495.44;5265189;28;20031;-75
2023/11/21 07:56:36;;;;;;;243.15;77.75;;;;;;;11.00;100.00;101497.84;5262341;28;20016;-74
2023/11/21 07:59:06;;;;;;;258.05;82.88;;;;;;;11.03;100.00;101505.56;5261489;28;20028;-75
2023/11/21 08:01:37;;;;;;;225.50;75.57;;;;;;;11.08;100.00;101505.94;5261859;28;20032;-75
2023/11/21 08:04:08;;;;;;;228.75;71.88;;;;;;;11.11;100.00;101508.34;5270831;28;20023;-76
2023/11/21 08:06:38;;;;;;;249.57;73.95;;;;;;;11.08;100.00;101508.63;5269091;28;20097;-75
2023/11/21 08:09:09;;;;;;;188.80;57.58;;;;;;;11.13;100.00;101510.88;5262163;28;20070;-75
2023/11/21 08:11:39;;;;;;;200.38;61.28;;;;;;;11.14;100.00;101520.59;5260201;28;20020;-75
2023/11/21 08:14:10;;;;;;;167.32;50.97;;;;;;;11.14;100.00;101518.78;5261925;28;20024;-75
2023/11/21 08:16:40;;;;;;;171.32;46.58;;;;;;;11.18;100.00;101529.19;5263876;28;20024;-74
2023/11/21 08:19:11;;;;;;;137.52;43.95;;;;;;;11.20;100.00;101527.22;5263732;28;20020;-75
2023/11/21 08:21:41;;;;;;;151.07;43.97;;;;;;;11.18;100.00;101526.53;5264472;28;20032;-75
2023/11/21 08:24:12;;;;;;;148.25;42.17;;;;;;;11.20;100.00;101532.59;5265021;28;20024;-75
2023/11/21 08:26:43;;;;;;;170.35;45.55;;;;;;;11.21;100.00;101534.28;5261583;28;20056;-75
2023/11/21 08:29:13;;;;;;;159.63;46.85;;;;;;;11.24;100.00;101539.31;5259721;28;20032;-75
2023/11/21 08:31:46;;;;;;;150.02;45.70;;;;;;;11.24;100.00;101542.84;5260362;28;20054;-75
2023/11/21 08:34:17;;;;;;;195.45;53.92;;;;;;;11.26;100.00;101531.97;5264454;28;20534;-74
2023/11/21 08:36:47;;;;;;;176.27;51.22;;;;;;;11.28;100.00;101543.41;5265077;27;20020;-75
2023/11/21 08:39:19;;;;;;;181.90;52.38;;;;;;;11.33;100.00;101549.16;5263448;28;20036;-75
2023/11/21 08:41:51;;;;;;;198.65;55.67;;;;;;;11.37;100.00;101550.53;5263650;28;20109;-75
2023/11/21 08:44:22;;;;;;;178.85;49.83;;;;;;;11.45;100.00;101549.78;5267507;28;20126;-73
2023/11/21 08:46:53;;;;;;;171.38;49.58;;;;;;;11.55;100.00;101546.00;5266467;28;20080;-75
2023/11/21 08:49:25;;;;;;;177.85;48.15;;;;;;;11.57;100.00;101548.53;5263530;28;20020;-75
2023/11/21 08:51:57;;;;;;;135.23;42.50;;;;;;;11.68;100.00;101551.81;5260878;28;20047;-75
2023/11/21 08:54:28;;;;;;;144.63;44.10;;;;;;;11.68;100.00;101554.47;5266839;28;20109;-75
2023/11/21 08:56:58;;;;;;;130.27;42.22;;;;;;;11.67;100.00;101551.97;5272041;28;20467;-75
2023/11/21 08:59:29;;;;;;;156.00;42.45;;;;;;;11.60;100.00;101557.13;5261528;28;20050;-75
2023/11/21 09:01:59;;;;;;;158.10;45.80;;;;;;;11.56;100.00;101549.53;5269535;28;20047;-74
2023/11/21 09:04:30;;;;;;;145.98;45.22;;;;;;;11.60;100.00;101554.44;5268449;28;20063;-75
2023/11/21 09:07:00;;;;;;;155.57;44.63;;;;;;;11.60;100.00;101558.97;5270941;28;20058;-75
2023/11/21 09:09:31;;;;;;;195.48;65.53;;;;;;;11.66;100.00;101567.25;5264196;28;20020;-75
2023/11/21 09:12:01;;;;;;;175.23;53.00;;;;;;;11.70;100.00;101561.53;5247439;28;20103;-75
2023/11/21 09:14:32;;;;;;;147.65;47.65;;;;;;;11.82;100.00;101571.94;5249636;28;20032;-75
2023/11/21 09:17:02;;;;;;;354.60;134.48;;;;;;;11.87;100.00;101584.91;5269302;28;20034;-75
2023/11/21 09:19:33;;;;;;;192.73;63.72;;;;;;;11.98;100.00;101584.66;5269916;28;20028;-75
2023/11/21 09:22:04;;;;;;;171.13;45.72;;;;;;;12.06;100.00;101578.50;5269266;28;20672;-74
2023/11/21 09:24:35;;;;;;;157.18;46.22;;;;;;;12.08;100.00;101588.06;5264384;28;20055;-75
2023/11/21 09:27:05;;;;;;;148.65;43.80;;;;;;;12.15;100.00;101583.78;5273986;28;20023;-74
2023/11/21 09:29:38;;;;;;;152.40;43.33;;;;;;;12.18;100.00;101586.13;5264751;28;20465;-75
2023/11/21 09:32:11;;;;;;;171.13;45.90;;;;;;;12.24;100.00;101584.63;5258653;28;20515;-75
2023/11/21 09:34:41;;;;;;;129.35;39.63;;;;;;;12.29;100.00;101595.75;5259390;28;20047;-75
2023/11/21 09:37:12;;;;;;;135.63;41.17;;;;;;;12.27;100.00;101608.53;5262866;28;20486;-75
2023/11/21 09:39:42;;;;;;;130.68;37.72;;;;;;;12.26;100.00;101608.72;5271987;28;20040;-75
2023/11/21 09:42:19;;;;;;;131.27;38.70;;;;;;;12.18;100.00;101621.09;5269083;28;20039;-75
2023/11/21 09:45:01;;;;;;;124.65;38.42;;;;;;;12.17;100.00;101621.25;5272458;28;20151;-75
2023/11/21 09:47:36;;;;;;;136.27;38.45;;;;;;;12.16;100.00;101622.28;5264687;28;20024;-75
2023/11/21 09:50:08;;;;;;;127.22;38.35;;;;;;;12.09;100.00;101626.56;5268720;28;20028;-75
2023/11/21 09:52:53;;;;;;;133.48;39.50;;;;;;;12.17;100.00;101626.63;5261839;28;20358;-75
2023/11/21 09:55:26;;;;;;;137.57;39.40;;;;;;;12.13;100.00;101628.78;5264182;28;20030;-75
2023/11/21 09:57:58;;;;;;;129.20;37.17;;;;;;;12.19;100.00;101627.31;5264829;28;20035;-74
2023/11/21 10:00:32;;;;;;;122.63;37.58;;;;;;;12.23;100.00;101635.94;5260519;28;20081;-74
2023/11/21 10:03:03;;;;;;;108.50;36.47;;;;;;;12.32;100.00;101624.22;5265908;28;20331;-74
2023/11/21 10:05:34;;;;;;;125.95;38.25;;;;;;;12.40;100.00;101637.72;5265942;28;20529;-74
2023/11/21 10:08:11;;;;;;;118.90;33.20;;;;;;;12.48;100.00;101636.91;5267498;28;20072;-75
2023/11/21 10:10:45;;;;;;;114.03;35.40;;;;;;;12.46;100.00;101634.41;5261416;28;20035;-75
2023/11/21 10:13:18;;;;;;;87.03;30.92;;;;;;;12.52;100.00;101639.13;5266779;28;20024;-75
2023/11/21 10:15:50;;;;;;;94.03;30.83;;;;;;;12.50;100.00;101651.06;5265837;28;20032;-75
2023/11/21 10:18:23;;;;;;;91.03;30.13;;;;;;;12.54;100.00;101650.56;5264599;28;20107;-75
2023/11/21 10:20:55;;;;;;;82.63;28.73;;;;;;;12.56;100.00;101653.13;5265733;28;20056;-75
2023/11/21 10:23:27;;;;;;;79.68;28.27;;;;;;;12.57;100.00;101654.81;5267306;28;20019;-75
2023/11/21 10:25:59;;;;;;;74.68;26.55;;;;;;;12.54;100.00;101657.81;5263029;28;20106;-75
2023/11/21 10:28:29;;;;;;;65.60;27.17;;;;;;;12.47;100.00;101663.00;5262251;28;20028;-74
2023/11/21 10:31:00;;;;;;;68.32;26.85;;;;;;;12.49;100.00;101658.28;5264663;28;20059;-75
2023/11/21 10:33:31;;;;;;;65.45;24.55;;;;;;;12.42;100.00;101663.47;5264883;28;20032;-75
2023/11/21 10:36:02;;;;;;;66.63;25.73;;;;;;;12.44;100.00;101668.69;5267907;28;20543;-75
2023/11/21 10:38:41;;;;;;;64.68;25.20;;;;;;;12.50;100.00;101675.28;5266385;28;20043;-74
2023/11/21 10:41:15;;;;;;;65.60;27.00;;;;;;;12.53;100.00;101664.19;5265890;28;20108;-74
2023/11/21 10:43:45;;;;;;;67.72;25.13;;;;;;;12.56;100.00;101674.66;5269644;28;20078;-74
2023/11/21 10:46:16;;;;;;;71.55;25.45;;;;;;;12.45;100.00;101678.47;5263547;28;20098;-74
2023/11/21 10:48:53;;;;;;;59.03;23.33;;;;;;;12.43;100.00;101683.16;5265861;28;20638;-74
2023/11/21 10:51:25;;;;;;;56.42;22.38;;;;;;;12.44;100.00;101676.75;5270456;27;20051;-75
2023/11/21 10:53:56;;;;;;;48.60;20.25;;;;;;;12.47;100.00;101679.13;5266817;28;20085;-74
2023/11/21 10:56:27;;;;;;;40.25;16.75;;;;;;;12.41;100.00;101682.47;5268748;28;20116;-75
2023/11/21 10:58:57;;;;;;;60.83;20.55;;;;;;;12.51;100.00;101680.50;5266779;28;20024;-75
2023/11/21 11:01:30;;;;;;;50.42;19.15;;;;;;;12.51;100.00;101683.22;5267096;28;20126;-74
2023/11/21 11:04:06;;;;;;;38.50;17.77;;;;;;;12.53;100.00;101683.88;5271824;28;20028;-75
2023/11/21 11:06:38;;;;;;;43.90;18.25;;;;;;;12.63;100.00;101675.69;5264103;28;20059;-75
2023/11/21 11:09:13;;;;;;;43.10;17.60;;;;;;;12.64;100.00;101674.69;5271197;28;20069;-74
2023/11/21 11:11:45;;;;;;;39.22;17.60;;;;;;;12.80;100.00;101682.00;5261924;28;20097;-75
2023/11/21 11:14:16;;;;;;;37.03;16.48;;;;;;;12.80;100.00;101682.00;5266625;28;20099;-75